createdAt,value
2023-05-19T00:00:16.855Z,80.3
2023-05-19T00:01:17.447Z,80.4
2023-05-19T00:02:17.369Z,80.8
2023-05-19T00:03:17.156Z,80.8
2023-05-19T00:04:16.816Z,80.6
2023-05-19T00:05:17.410Z,80.5
2023-05-19T00:06:17.192Z,80.5
2023-05-19T00:07:16.748Z,80.4
2023-05-19T00:08:17.296Z,80.5
2023-05-19T00:09:16.896Z,80.6
2023-05-19T00:10:17.460Z,80.6
2023-05-19T00:11:17.048Z,80.8
2023-05-19T00:12:16.716Z,81.8
2023-05-19T00:13:17.270Z,82.3
2023-05-19T00:14:16.856Z,82.2
2023-05-19T00:15:17.458Z,81.6
2023-05-19T00:16:17.156Z,81.8
2023-05-19T00:17:16.768Z,81.6
2023-05-19T00:18:17.354Z,81.4
2023-05-19T00:19:17.196Z,81.7
2023-05-19T00:20:16.849Z,82.1
2023-05-19T00:21:17.408Z,82.3
2023-05-19T00:22:16.796Z,82.3
2023-05-19T00:23:16.533Z,81.9
2023-05-19T00:24:17.105Z,82.1
2023-05-19T00:25:16.684Z,82.2
2023-05-19T00:26:17.252Z,82.1
2023-05-19T00:27:16.797Z,81.8
2023-05-19T00:28:17.423Z,81.8
2023-05-19T00:29:17.122Z,81.6
2023-05-19T00:30:16.756Z,81.6
2023-05-19T00:31:17.540Z,81.5
2023-05-19T00:32:17.250Z,81.6
2023-05-19T00:33:16.819Z,81.7
2023-05-19T00:34:17.406Z,81.6
2023-05-19T00:35:16.982Z,82.0
2023-05-19T00:36:16.547Z,82.2
2023-05-19T00:37:17.100Z,82.3
2023-05-19T00:38:16.642Z,82.4
2023-05-19T00:39:17.203Z,82.4
2023-05-19T00:40:16.775Z,82.5
2023-05-19T00:41:17.306Z,82.3
2023-05-19T00:42:16.775Z,82.4
2023-05-19T00:43:17.368Z,82.5
2023-05-19T00:44:16.912Z,82.5
2023-05-19T00:45:17.486Z,82.3
2023-05-19T00:46:17.077Z,82.6
2023-05-19T00:47:16.689Z,82.4
2023-05-19T00:48:17.320Z,82.3
2023-05-19T00:49:16.909Z,82.1
2023-05-19T00:50:17.470Z,82.0
2023-05-19T00:51:17.437Z,82.0
2023-05-19T00:52:17.049Z,81.7
2023-05-19T00:53:16.590Z,81.7
2023-05-19T00:54:17.128Z,81.7
2023-05-19T00:55:16.660Z,81.6
2023-05-19T00:56:17.317Z,81.5
2023-05-19T00:57:16.869Z,81.5
2023-05-19T00:58:17.409Z,81.4
2023-05-19T00:59:16.967Z,81.3
2023-05-19T01:00:16.545Z,81.3
2023-05-19T01:01:17.351Z,81.2
2023-05-19T01:02:17.485Z,81.2
2023-05-19T01:03:17.251Z,81.1
2023-05-19T01:04:16.852Z,81.0
2023-05-19T01:05:17.403Z,80.9
2023-05-19T01:06:16.950Z,81.0
2023-05-19T01:07:17.479Z,81.1
2023-05-19T01:08:17.033Z,81.1
2023-05-19T01:09:16.598Z,81.1
2023-05-19T01:10:17.165Z,81.0
2023-05-19T01:11:16.731Z,81.2
2023-05-19T01:12:17.265Z,80.9
2023-05-19T01:13:16.864Z,80.8
2023-05-19T01:14:17.530Z,80.8
2023-05-19T01:15:17.144Z,80.7
2023-05-19T01:16:16.811Z,80.7
2023-05-19T01:17:17.384Z,80.6
2023-05-19T01:18:16.975Z,80.5
2023-05-19T01:19:16.634Z,80.6
2023-05-19T01:20:17.222Z,80.6
2023-05-19T01:21:16.875Z,80.6
2023-05-19T01:22:17.263Z,80.6
2023-05-19T01:23:16.834Z,80.6
2023-05-19T01:24:17.447Z,80.4
2023-05-19T01:25:17.036Z,80.7
2023-05-19T01:26:16.589Z,80.6
2023-05-19T01:27:17.176Z,80.7
2023-05-19T01:28:16.749Z,80.7
2023-05-19T01:29:17.326Z,80.6
2023-05-19T01:30:16.860Z,80.8
2023-05-19T01:31:17.419Z,80.7
2023-05-19T01:32:17.065Z,80.8
2023-05-19T01:33:16.640Z,80.7
2023-05-19T01:34:17.189Z,80.8
2023-05-19T01:35:16.888Z,80.8
2023-05-19T01:36:17.470Z,80.8
2023-05-19T01:37:17.024Z,80.7
2023-05-19T01:38:16.639Z,80.5
2023-05-19T01:39:17.246Z,80.7
2023-05-19T01:40:16.950Z,81.3
2023-05-19T01:41:16.577Z,81.3
2023-05-19T01:42:16.869Z,81.3
2023-05-19T01:43:17.433Z,81.5
2023-05-19T01:44:17.008Z,81.6
2023-05-19T01:45:16.574Z,81.4
2023-05-19T01:46:17.357Z,81.3
2023-05-19T01:47:16.994Z,81.2
2023-05-19T01:48:16.774Z,81.0
2023-05-19T01:49:17.347Z,81.0
2023-05-19T01:50:16.950Z,81.0
2023-05-19T01:51:17.546Z,81.2
2023-05-19T01:52:16.794Z,81.2
2023-05-19T01:53:17.373Z,81.2
2023-05-19T01:54:16.896Z,81.0
2023-05-19T01:55:17.467Z,81.0
2023-05-19T01:56:17.085Z,81.0
2023-05-19T01:57:16.620Z,81.0
2023-05-19T01:58:17.163Z,80.9
2023-05-19T01:59:16.748Z,81.0
2023-05-19T02:00:21.215Z,81.0
2023-05-19T02:01:16.998Z,80.9
2023-05-19T02:02:17.280Z,80.8
2023-05-19T02:03:16.848Z,80.7
2023-05-19T02:04:17.458Z,80.8
2023-05-19T02:05:17.011Z,80.9
2023-05-19T02:06:16.566Z,80.9
2023-05-19T02:07:17.107Z,81.0
2023-05-19T02:08:16.680Z,81.1
2023-05-19T02:09:17.221Z,81.2
2023-05-19T02:10:16.775Z,81.1
2023-05-19T02:11:17.314Z,81.0
2023-05-19T02:12:16.942Z,81.0
2023-05-19T02:13:17.512Z,81.0
2023-05-19T02:14:17.087Z,81.0
2023-05-19T02:15:16.648Z,81.0
2023-05-19T02:16:17.298Z,81.1
2023-05-19T02:17:16.890Z,80.7
2023-05-19T02:18:17.421Z,80.7
2023-05-19T02:19:17.082Z,80.7
2023-05-19T02:20:16.663Z,80.5
2023-05-19T02:21:17.219Z,80.5
2023-05-19T02:22:17.053Z,80.4
2023-05-19T02:23:16.618Z,80.3
2023-05-19T02:24:17.164Z,79.0
2023-05-19T02:25:16.721Z,78.7
2023-05-19T02:26:17.250Z,78.8
2023-05-19T02:27:16.818Z,79.0
2023-05-19T02:28:17.379Z,79.0
2023-05-19T02:29:16.955Z,79.0
2023-05-19T02:30:17.502Z,79.0
2023-05-19T02:31:17.082Z,78.9
2023-05-19T02:32:17.143Z,78.7
2023-05-19T02:33:16.696Z,78.7
2023-05-19T02:34:17.264Z,78.8
2023-05-19T02:35:16.850Z,78.9
2023-05-19T02:36:17.400Z,78.9
2023-05-19T02:37:16.966Z,79.3
2023-05-19T02:38:17.559Z,79.0
2023-05-19T02:39:17.114Z,78.9
2023-05-19T02:40:16.660Z,78.9
2023-05-19T02:41:17.215Z,79.0
2023-05-19T02:42:16.686Z,78.7
2023-05-19T02:43:17.252Z,78.7
2023-05-19T02:44:16.825Z,78.5
2023-05-19T02:45:16.826Z,78.3
2023-05-19T02:46:17.397Z,78.3
2023-05-19T02:47:16.973Z,78.1
2023-05-19T02:48:16.557Z,78.1
2023-05-19T02:49:17.136Z,78.2
2023-05-19T02:50:16.794Z,77.9
2023-05-19T02:51:17.422Z,78.0
2023-05-19T02:52:17.276Z,78.1
2023-05-19T02:53:16.899Z,77.7
2023-05-19T02:54:17.507Z,77.6
2023-05-19T02:55:17.146Z,77.3
2023-05-19T02:56:16.719Z,77.2
2023-05-19T02:57:17.248Z,77.3
2023-05-19T02:58:16.767Z,77.2
2023-05-19T02:59:17.295Z,77.4
2023-05-19T03:00:16.901Z,77.1
2023-05-19T03:01:17.524Z,77.3
2023-05-19T03:02:17.008Z,77.0
2023-05-19T03:03:16.775Z,76.6
2023-05-19T03:04:17.415Z,76.7
2023-05-19T03:05:17.041Z,76.5
2023-05-19T03:06:16.605Z,76.7
2023-05-19T03:07:17.183Z,76.1
2023-05-19T03:08:16.703Z,76.2
2023-05-19T03:09:17.239Z,76.0
2023-05-19T03:10:16.874Z,76.1
2023-05-19T03:11:17.411Z,76.0
2023-05-19T03:12:16.669Z,76.1
2023-05-19T03:13:17.233Z,75.9
2023-05-19T03:14:16.810Z,75.5
2023-05-19T03:15:17.378Z,75.6
2023-05-19T03:16:17.042Z,75.5
2023-05-19T03:17:16.670Z,75.4
2023-05-19T03:18:17.337Z,75.4
2023-05-19T03:19:17.050Z,75.6
2023-05-19T03:20:16.659Z,75.4
2023-05-19T03:21:17.188Z,75.7
2023-05-19T03:22:16.518Z,75.8
2023-05-19T03:23:17.055Z,75.9
2023-05-19T03:24:16.625Z,75.8
2023-05-19T03:25:17.185Z,75.9
2023-05-19T03:26:16.734Z,76.0
2023-05-19T03:27:17.289Z,76.1
2023-05-19T03:28:16.832Z,76.0
2023-05-19T03:29:17.437Z,75.8
2023-05-19T03:30:17.011Z,75.9
2023-05-19T03:31:16.615Z,75.9
2023-05-19T03:32:17.213Z,75.8
2023-05-19T03:33:17.112Z,75.8
2023-05-19T03:34:16.807Z,75.8
2023-05-19T03:35:17.351Z,76.1
2023-05-19T03:36:16.887Z,76.1
2023-05-19T03:37:17.436Z,75.9
2023-05-19T03:38:17.030Z,75.6
2023-05-19T03:39:16.556Z,75.9
2023-05-19T03:40:17.109Z,76.1
2023-05-19T03:41:16.706Z,76.0
2023-05-19T03:42:17.319Z,76.1
2023-05-19T03:43:16.891Z,76.0
2023-05-19T03:44:17.510Z,76.1
2023-05-19T03:45:17.103Z,76.3
2023-05-19T03:46:16.765Z,76.2
2023-05-19T03:47:17.349Z,76.2
2023-05-19T03:48:20.444Z,76.1
2023-05-19T03:49:16.725Z,76.3
2023-05-19T03:50:17.320Z,76.1
2023-05-19T03:51:16.858Z,76.0
2023-05-19T03:52:16.632Z,76.4
2023-05-19T03:53:17.187Z,76.0
2023-05-19T03:54:16.721Z,76.0
2023-05-19T03:55:17.273Z,76.1
2023-05-19T03:56:16.849Z,76.1
2023-05-19T03:57:17.415Z,75.8
2023-05-19T03:58:17.036Z,75.9
2023-05-19T03:59:16.676Z,76.0
2023-05-19T04:00:17.272Z,75.9
2023-05-19T04:01:16.862Z,75.8
2023-05-19T04:02:17.516Z,75.9
2023-05-19T04:03:17.330Z,75.4
2023-05-19T04:04:17.019Z,75.5
2023-05-19T04:05:16.577Z,75.5
2023-05-19T04:06:17.128Z,75.7
2023-05-19T04:07:16.682Z,75.6
2023-05-19T04:08:17.236Z,75.6
2023-05-19T04:09:16.829Z,75.4
2023-05-19T04:10:17.424Z,75.3
2023-05-19T04:11:17.001Z,75.3
2023-05-19T04:12:16.557Z,75.2
2023-05-19T04:13:17.120Z,75.2
2023-05-19T04:14:16.692Z,75.1
2023-05-19T04:15:17.268Z,75.1
2023-05-19T04:16:16.894Z,75.2
2023-05-19T04:17:17.514Z,75.3
2023-05-19T04:18:17.071Z,75.2
2023-05-19T04:19:16.759Z,75.3
2023-05-19T04:20:17.350Z,75.1
2023-05-19T04:21:16.910Z,74.8
2023-05-19T04:22:17.300Z,74.5
2023-05-19T04:23:16.891Z,74.8
2023-05-19T04:24:17.477Z,74.8
2023-05-19T04:25:17.054Z,74.7
2023-05-19T04:26:16.650Z,74.4
2023-05-19T04:27:17.193Z,74.5
2023-05-19T04:28:16.798Z,74.5
2023-05-19T04:29:17.373Z,74.5
2023-05-19T04:30:18.813Z,74.6
2023-05-19T04:31:17.509Z,74.5
2023-05-19T04:32:17.100Z,74.5
2023-05-19T04:33:16.631Z,74.5
2023-05-19T04:34:17.190Z,74.6
2023-05-19T04:35:16.802Z,74.9
2023-05-19T04:36:17.381Z,74.3
2023-05-19T04:37:16.989Z,74.5
2023-05-19T04:38:16.539Z,73.9
2023-05-19T04:39:17.177Z,74.1
2023-05-19T04:40:16.721Z,74.1
2023-05-19T04:41:17.268Z,74.6
2023-05-19T04:42:16.696Z,74.6
2023-05-19T04:43:17.239Z,74.2
2023-05-19T04:44:16.768Z,74.2
2023-05-19T04:45:17.342Z,73.9
2023-05-19T04:46:16.933Z,74.2
2023-05-19T04:47:17.518Z,74.1
2023-05-19T04:48:17.090Z,74.4
2023-05-19T04:49:16.673Z,74.2
2023-05-19T04:50:17.370Z,74.0
2023-05-19T04:51:16.919Z,73.8
2023-05-19T04:52:16.606Z,73.8
2023-05-19T04:53:17.180Z,74.2
2023-05-19T04:54:16.724Z,74.1
2023-05-19T04:55:17.284Z,74.2
2023-05-19T04:56:16.849Z,74.2
2023-05-19T04:57:17.394Z,74.1
2023-05-19T04:58:16.929Z,73.4
2023-05-19T04:59:17.481Z,73.5
2023-05-19T05:00:17.061Z,73.3
2023-05-19T05:01:16.741Z,73.3
2023-05-19T05:02:16.908Z,73.3
2023-05-19T05:03:17.856Z,73.3
2023-05-19T05:04:17.451Z,73.1
2023-05-19T05:05:16.994Z,73.3
2023-05-19T05:06:16.574Z,73.0
2023-05-19T05:07:17.099Z,73.2
2023-05-19T05:08:16.619Z,73.3
2023-05-19T05:09:17.167Z,72.9
2023-05-19T05:10:16.765Z,72.9
2023-05-19T05:11:17.529Z,73.1
2023-05-19T05:12:17.136Z,73.4
2023-05-19T05:13:16.687Z,73.4
2023-05-19T05:14:17.272Z,73.0
2023-05-19T05:15:16.848Z,73.7
2023-05-19T05:16:17.422Z,73.0
2023-05-19T05:17:16.989Z,73.0
2023-05-19T05:18:16.548Z,72.8
2023-05-19T05:19:17.178Z,72.5
2023-05-19T05:20:16.778Z,72.5
2023-05-19T05:21:17.352Z,72.8
2023-05-19T05:22:17.080Z,73.1
2023-05-19T05:23:16.642Z,73.0
2023-05-19T05:24:17.219Z,73.0
2023-05-19T05:25:16.750Z,72.9
2023-05-19T05:26:17.312Z,72.3
2023-05-19T05:27:16.860Z,71.8
2023-05-19T05:28:17.413Z,72.1
2023-05-19T05:29:16.991Z,72.4
2023-05-19T05:30:16.565Z,72.2
2023-05-19T05:31:17.113Z,72.3
2023-05-19T05:32:16.945Z,72.1
2023-05-19T05:33:16.984Z,71.5
2023-05-19T05:34:16.584Z,71.7
2023-05-19T05:35:17.151Z,71.8
2023-05-19T05:36:16.736Z,72.0
2023-05-19T05:37:17.282Z,71.5
2023-05-19T05:38:16.831Z,71.2
2023-05-19T05:39:17.408Z,71.1
2023-05-19T05:40:16.973Z,71.3
2023-05-19T05:41:16.558Z,71.2
2023-05-19T05:42:17.200Z,71.0
2023-05-19T05:43:16.782Z,71.6
2023-05-19T05:44:17.345Z,71.3
2023-05-19T05:45:16.934Z,71.2
2023-05-19T05:46:17.572Z,71.2
2023-05-19T05:47:17.189Z,70.6
2023-05-19T05:48:16.805Z,71.0
2023-05-19T05:49:17.376Z,71.3
2023-05-19T05:50:16.924Z,71.5
2023-05-19T05:51:17.549Z,71.0
2023-05-19T05:52:16.785Z,71.3
2023-05-19T05:53:17.328Z,71.7
2023-05-19T05:54:16.884Z,71.3
2023-05-19T05:55:17.488Z,70.8
2023-05-19T05:56:17.078Z,72.0
2023-05-19T05:57:16.650Z,72.1
2023-05-19T05:58:17.251Z,71.6
2023-05-19T05:59:16.793Z,71.9
2023-05-19T06:00:17.359Z,71.7
2023-05-19T06:01:16.960Z,72.5
2023-05-19T06:02:16.781Z,72.4
2023-05-19T06:03:17.717Z,72.3
2023-05-19T06:04:17.427Z,71.8
2023-05-19T06:05:17.088Z,71.9
2023-05-19T06:06:16.631Z,71.9
2023-05-19T06:07:17.214Z,72.3
2023-05-19T06:08:16.818Z,72.4
2023-05-19T06:09:17.471Z,72.4
2023-05-19T06:10:17.049Z,71.3
2023-05-19T06:11:16.610Z,70.9
2023-05-19T06:12:17.089Z,70.9
2023-05-19T06:13:16.640Z,71.2
2023-05-19T06:14:17.282Z,72.1
2023-05-19T06:15:16.957Z,71.7
2023-05-19T06:16:17.585Z,71.8
2023-05-19T06:17:17.140Z,71.2
2023-05-19T06:18:16.706Z,71.0
2023-05-19T06:19:17.337Z,71.6
2023-05-19T06:20:16.906Z,71.3
2023-05-19T06:21:17.494Z,71.7
2023-05-19T06:22:17.123Z,71.9
2023-05-19T06:23:16.645Z,71.7
2023-05-19T06:24:17.212Z,71.4
2023-05-19T06:25:16.770Z,71.4
2023-05-19T06:26:17.391Z,70.8
2023-05-19T06:27:17.000Z,70.8
2023-05-19T06:28:16.520Z,70.8
2023-05-19T06:29:17.061Z,70.3
2023-05-19T06:30:16.620Z,69.8
2023-05-19T06:31:17.238Z,69.9
2023-05-19T06:32:16.780Z,70.1
2023-05-19T06:33:17.354Z,70.4
2023-05-19T06:34:16.905Z,70.6
2023-05-19T06:35:17.452Z,70.6
2023-05-19T06:36:17.078Z,70.6
2023-05-19T06:37:16.740Z,70.6
2023-05-19T06:38:17.318Z,70.8
2023-05-19T06:39:16.877Z,70.4
2023-05-19T06:40:17.445Z,69.8
2023-05-19T06:41:16.973Z,69.8
2023-05-19T06:42:16.583Z,69.8
2023-05-19T06:43:17.151Z,69.2
2023-05-19T06:44:16.904Z,69.1
2023-05-19T06:45:16.696Z,69.1
2023-05-19T06:46:17.350Z,69.2
2023-05-19T06:47:17.117Z,69.0
2023-05-19T06:48:16.841Z,68.5
2023-05-19T06:49:17.531Z,67.8
2023-05-19T06:50:17.091Z,68.3
2023-05-19T06:51:16.662Z,68.0
2023-05-19T06:52:17.178Z,68.1
2023-05-19T06:53:16.781Z,68.8
2023-05-19T06:54:17.342Z,69.2
2023-05-19T06:55:16.890Z,68.6
2023-05-19T06:56:17.432Z,67.9
2023-05-19T06:57:16.972Z,68.4
2023-05-19T06:58:16.544Z,67.9
2023-05-19T06:59:17.079Z,67.6
2023-05-19T07:00:21.356Z,67.3
2023-05-19T07:01:16.993Z,66.8
2023-05-19T07:02:17.097Z,67.5
2023-05-19T07:03:17.096Z,68.0
2023-05-19T07:04:16.984Z,68.4
2023-05-19T07:05:17.031Z,68.7
2023-05-19T07:06:16.682Z,68.7
2023-05-19T07:07:17.281Z,69.0
2023-05-19T07:08:16.810Z,68.8
2023-05-19T07:09:17.827Z,69.3
2023-05-19T07:10:16.970Z,69.3
2023-05-19T07:11:16.514Z,69.1
2023-05-19T07:12:17.507Z,69.1
2023-05-19T07:13:17.141Z,68.5
2023-05-19T07:14:16.701Z,68.5
2023-05-19T07:15:17.270Z,68.7
2023-05-19T07:16:17.055Z,68.7
2023-05-19T07:17:16.729Z,68.4
2023-05-19T07:18:17.278Z,67.7
2023-05-19T07:19:17.064Z,67.3
2023-05-19T07:20:16.638Z,67.6
2023-05-19T07:21:17.190Z,67.7
2023-05-19T07:22:16.599Z,67.4
2023-05-19T07:23:17.814Z,67.4
2023-05-19T07:24:17.382Z,67.9
2023-05-19T07:25:16.932Z,68.1
2023-05-19T07:26:17.486Z,67.8
2023-05-19T07:27:17.013Z,67.5
2023-05-19T07:28:16.545Z,67.7
2023-05-19T07:29:17.070Z,67.9
2023-05-19T07:30:16.627Z,68.4
2023-05-19T07:31:17.193Z,68.8
2023-05-19T07:32:16.985Z,68.3
2023-05-19T07:33:16.753Z,68.1
2023-05-19T07:34:17.353Z,68.8
2023-05-19T07:35:16.956Z,68.5
2023-05-19T07:36:17.518Z,68.2
2023-05-19T07:37:17.078Z,68.4
2023-05-19T07:38:16.616Z,67.7
2023-05-19T07:39:17.275Z,67.3
2023-05-19T07:40:16.912Z,67.3
2023-05-19T07:41:17.511Z,67.8
2023-05-19T07:42:17.163Z,68.2
2023-05-19T07:43:16.732Z,68.2
2023-05-19T07:44:17.297Z,68.5
2023-05-19T07:45:16.903Z,67.2
2023-05-19T07:46:17.619Z,66.4
2023-05-19T07:47:17.192Z,65.9
2023-05-19T07:48:16.887Z,66.1
2023-05-19T07:49:16.619Z,65.8
2023-05-19T07:50:17.170Z,62.8
2023-05-19T07:51:16.729Z,62.0
2023-05-19T07:52:17.088Z,63.4
2023-05-19T07:53:16.635Z,63.6
2023-05-19T07:54:17.205Z,61.9
2023-05-19T07:55:16.737Z,61.6
2023-05-19T07:56:17.323Z,59.9
2023-05-19T07:57:16.863Z,58.5
2023-05-19T07:58:17.423Z,59.3
2023-05-19T07:59:17.038Z,58.9
2023-05-19T08:00:16.616Z,59.3
2023-05-19T08:01:17.192Z,59.3
2023-05-19T08:02:17.032Z,60.1
2023-05-19T08:03:16.983Z,60.1
2023-05-19T08:04:16.801Z,58.9
2023-05-19T08:05:17.478Z,59.0
2023-05-19T08:06:17.023Z,59.3
2023-05-19T08:07:16.558Z,60.2
2023-05-19T08:08:17.227Z,60.3
2023-05-19T08:09:16.775Z,61.7
2023-05-19T08:10:17.331Z,62.9
2023-05-19T08:11:16.908Z,62.3
2023-05-19T08:12:16.613Z,61.2
2023-05-19T08:13:17.187Z,61.9
2023-05-19T08:14:16.800Z,60.1
2023-05-19T08:15:17.393Z,60.1
2023-05-19T08:16:17.143Z,58.9
2023-05-19T08:17:16.819Z,58.5
2023-05-19T08:18:17.371Z,60.1
2023-05-19T08:19:17.063Z,62.2
2023-05-19T08:20:16.624Z,61.2
2023-05-19T08:21:17.185Z,61.3
2023-05-19T08:22:16.731Z,60.7
2023-05-19T08:23:17.280Z,60.8
2023-05-19T08:24:16.848Z,60.9
2023-05-19T08:25:17.400Z,61.1
2023-05-19T08:26:16.947Z,61.8
2023-05-19T08:27:17.497Z,62.8
2023-05-19T08:28:17.090Z,63.1
2023-05-19T08:29:16.692Z,63.2
2023-05-19T08:30:17.269Z,62.5
2023-05-19T08:31:16.891Z,62.1
2023-05-19T08:32:16.589Z,61.9
2023-05-19T08:33:17.172Z,62.3
2023-05-19T08:34:16.728Z,62.6
2023-05-19T08:35:17.313Z,62.9
2023-05-19T08:36:16.837Z,63.1
2023-05-19T08:37:17.399Z,62.5
2023-05-19T08:38:16.963Z,62.8
2023-05-19T08:39:16.579Z,62.7
2023-05-19T08:40:17.166Z,62.5
2023-05-19T08:41:16.789Z,62.9
2023-05-19T08:42:17.290Z,64.1
2023-05-19T08:43:16.974Z,64.1
2023-05-19T08:44:19.278Z,64.6
2023-05-19T08:45:16.860Z,63.7
2023-05-19T08:46:17.514Z,63.5
2023-05-19T08:47:17.119Z,63.9
2023-05-19T08:48:16.749Z,64.3
2023-05-19T08:49:17.330Z,63.3
2023-05-19T08:50:16.941Z,64.0
2023-05-19T08:51:17.518Z,64.0
2023-05-19T08:52:17.262Z,64.3
2023-05-19T08:54:17.297Z,64.0
2023-05-19T08:55:16.884Z,63.9
2023-05-19T08:56:17.455Z,64.2
2023-05-19T08:57:16.993Z,64.6
2023-05-19T08:58:16.589Z,64.3
2023-05-19T08:59:17.212Z,64.1
2023-05-19T09:00:16.877Z,63.9
2023-05-19T09:01:17.540Z,64.6
2023-05-19T09:02:16.634Z,64.6
2023-05-19T09:03:24.223Z,64.1
2023-05-19T09:04:17.070Z,64.2
2023-05-19T09:05:16.807Z,65.2
2023-05-19T09:06:17.392Z,64.6
2023-05-19T09:07:16.938Z,63.8
2023-05-19T09:08:17.515Z,63.2
2023-05-19T09:09:17.085Z,63.0
2023-05-19T09:10:16.639Z,64.0
2023-05-19T09:11:17.267Z,64.0
2023-05-19T09:12:16.645Z,64.5
2023-05-19T09:13:17.262Z,64.0
2023-05-19T09:14:16.845Z,64.4
2023-05-19T09:15:17.416Z,63.8
2023-05-19T09:16:16.962Z,63.8
2023-05-19T09:17:17.556Z,64.6
2023-05-19T09:18:17.170Z,64.6
2023-05-19T09:19:16.914Z,64.2
2023-05-19T09:20:17.490Z,64.3
2023-05-19T09:21:17.072Z,64.3
2023-05-19T09:22:16.993Z,64.4
2023-05-19T09:23:16.974Z,64.8
2023-05-19T09:24:16.624Z,64.5
2023-05-19T09:25:17.391Z,64.1
2023-05-19T09:26:16.988Z,64.1
2023-05-19T09:27:16.635Z,63.4
2023-05-19T09:28:17.222Z,63.6
2023-05-19T09:29:16.832Z,63.7
2023-05-19T09:30:17.364Z,62.8
2023-05-19T09:31:16.931Z,62.2
2023-05-19T09:32:17.543Z,61.5
2023-05-19T09:33:17.160Z,61.7
2023-05-19T09:34:16.697Z,61.7
2023-05-19T09:35:17.275Z,60.9
2023-05-19T09:36:16.863Z,60.2
2023-05-19T09:37:17.440Z,57.9
2023-05-19T09:38:16.990Z,58.2
2023-05-19T09:39:16.577Z,59.0
2023-05-19T09:40:17.157Z,59.5
2023-05-19T09:41:16.748Z,59.2
2023-05-19T09:42:17.346Z,58.5
2023-05-19T09:43:16.885Z,58.8
2023-05-19T09:44:17.444Z,58.9
2023-05-19T09:45:16.981Z,58.8
2023-05-19T09:46:16.621Z,59.1
2023-05-19T09:47:17.218Z,59.8
2023-05-19T09:48:16.764Z,59.0
2023-05-19T09:49:17.321Z,59.4
2023-05-19T09:50:16.870Z,60.4
2023-05-19T09:51:17.490Z,60.2
2023-05-19T09:52:17.314Z,60.9
2023-05-19T09:53:16.857Z,59.8
2023-05-19T09:54:17.408Z,59.8
2023-05-19T09:55:16.975Z,60.0
2023-05-19T09:56:16.525Z,60.2
2023-05-19T09:57:17.066Z,60.6
2023-05-19T09:58:16.641Z,60.3
2023-05-19T09:59:17.193Z,61.0
2023-05-19T10:00:16.797Z,61.4
2023-05-19T10:01:17.430Z,61.2
2023-05-19T10:02:16.928Z,61.2
2023-05-19T10:03:17.496Z,61.8
2023-05-19T10:04:17.045Z,61.7
2023-05-19T10:05:16.940Z,60.4
2023-05-19T10:06:16.790Z,60.4
2023-05-19T10:07:17.326Z,60.7
2023-05-19T10:08:16.862Z,61.7
2023-05-19T10:09:17.430Z,61.1
2023-05-19T10:10:17.080Z,60.3
2023-05-19T10:11:16.667Z,60.6
2023-05-19T10:12:17.127Z,61.1
2023-05-19T10:13:16.817Z,60.6
2023-05-19T10:14:17.373Z,60.7
2023-05-19T10:15:16.962Z,60.4
2023-05-19T10:16:16.562Z,61.2
2023-05-19T10:17:17.181Z,61.2
2023-05-19T10:18:16.809Z,60.7
2023-05-19T10:19:17.468Z,60.1
2023-05-19T10:20:17.290Z,60.4
2023-05-19T10:21:16.889Z,60.3
2023-05-19T10:22:16.994Z,59.6
2023-05-19T10:23:16.560Z,59.7
2023-05-19T10:24:17.077Z,59.4
2023-05-19T10:25:16.656Z,58.5
2023-05-19T10:26:17.238Z,58.4
2023-05-19T10:27:16.779Z,58.5
2023-05-19T10:28:17.357Z,59.3
2023-05-19T10:29:16.914Z,59.3
2023-05-19T10:30:17.647Z,59.2
2023-05-19T10:31:17.257Z,59.0
2023-05-19T10:32:16.832Z,59.2
2023-05-19T10:33:17.671Z,59.0
2023-05-19T10:34:17.281Z,59.7
2023-05-19T10:35:16.919Z,59.2
2023-05-19T10:36:17.536Z,59.1
2023-05-19T10:37:17.431Z,58.7
2023-05-19T10:38:16.610Z,58.5
2023-05-19T10:39:17.217Z,59.3
2023-05-19T10:40:16.814Z,60.3
2023-05-19T10:41:17.374Z,60.3
2023-05-19T10:42:17.179Z,59.8
2023-05-19T10:43:16.759Z,60.5
2023-05-19T10:44:17.478Z,59.7
2023-05-19T10:45:17.168Z,58.8
2023-05-19T10:46:16.808Z,58.3
2023-05-19T10:47:17.524Z,58.0
2023-05-19T10:48:17.306Z,56.9
2023-05-19T10:49:16.895Z,56.5
2023-05-19T10:50:17.456Z,56.2
2023-05-19T10:51:17.044Z,55.6
2023-05-19T10:52:17.260Z,56.1
2023-05-19T10:53:16.806Z,57.1
2023-05-19T10:54:17.424Z,56.7
2023-05-19T10:55:17.030Z,56.8
2023-05-19T10:56:16.614Z,56.3
2023-05-19T10:57:17.181Z,55.5
2023-05-19T10:58:16.739Z,54.2
2023-05-19T10:59:17.336Z,54.5
2023-05-19T11:00:16.948Z,54.2
2023-05-19T11:01:17.631Z,54.2
2023-05-19T11:02:16.932Z,54.8
2023-05-19T11:03:16.664Z,54.7
2023-05-19T11:04:17.363Z,56.4
2023-05-19T11:05:17.147Z,56.5
2023-05-19T11:06:16.766Z,56.4
2023-05-19T11:07:17.502Z,55.6
2023-05-19T11:08:17.069Z,55.1
2023-05-19T11:09:16.625Z,55.5
2023-05-19T11:10:17.195Z,54.7
2023-05-19T11:11:16.793Z,54.4
2023-05-19T11:12:17.358Z,54.7
2023-05-19T11:13:16.919Z,53.6
2023-05-19T11:14:17.475Z,54.6
2023-05-19T11:15:17.079Z,54.6
2023-05-19T11:16:16.744Z,55.5
2023-05-19T11:17:17.344Z,56.2
2023-05-19T11:18:17.088Z,55.5
2023-05-19T11:19:16.748Z,56.2
2023-05-19T11:20:17.298Z,56.3
2023-05-19T11:21:16.945Z,56.0
2023-05-19T11:22:17.388Z,56.4
2023-05-19T11:23:16.972Z,57.1
2023-05-19T11:24:16.578Z,56.2
2023-05-19T11:25:17.169Z,55.8
2023-05-19T11:26:16.730Z,54.8
2023-05-19T11:27:17.325Z,54.4
2023-05-19T11:28:16.925Z,54.4
2023-05-19T11:29:17.515Z,55.3
2023-05-19T11:30:17.142Z,55.3
2023-05-19T11:31:16.689Z,55.7
2023-05-19T11:32:17.472Z,56.3
2023-05-19T11:33:17.166Z,57.2
2023-05-19T11:34:16.745Z,57.3
2023-05-19T11:35:17.317Z,56.8
2023-05-19T11:36:16.902Z,56.2
2023-05-19T11:37:17.469Z,56.0
2023-05-19T11:38:17.021Z,55.4
2023-05-19T11:39:16.552Z,56.1
2023-05-19T11:40:17.120Z,56.2
2023-05-19T11:41:20.743Z,56.5
2023-05-19T11:42:17.350Z,56.6
2023-05-19T11:43:16.954Z,55.6
2023-05-19T11:44:17.517Z,56.2
2023-05-19T11:45:17.056Z,56.2
2023-05-19T11:46:16.665Z,56.6
2023-05-19T11:47:17.257Z,55.6
2023-05-19T11:48:16.898Z,55.2
2023-05-19T11:49:17.498Z,55.9
2023-05-19T11:50:17.128Z,56.8
2023-05-19T11:51:16.833Z,57.6
2023-05-19T11:52:17.193Z,56.9
2023-05-19T11:53:16.783Z,56.3
2023-05-19T11:54:17.331Z,55.6
2023-05-19T11:55:16.920Z,55.7
2023-05-19T11:56:17.482Z,55.7
2023-05-19T11:57:17.006Z,54.7
2023-05-19T11:58:16.629Z,55.3
2023-05-19T11:59:17.205Z,54.9
2023-05-19T12:00:16.771Z,55.9
2023-05-19T12:01:17.321Z,54.9
2023-05-19T12:02:16.841Z,55.0
2023-05-19T12:03:17.893Z,54.3
2023-05-19T12:04:17.526Z,54.0
2023-05-19T12:05:17.219Z,55.2
2023-05-19T12:06:16.932Z,55.2
2023-05-19T12:07:17.561Z,54.5
2023-05-19T12:08:17.187Z,54.6
2023-05-19T12:09:16.790Z,54.8
2023-05-19T12:10:17.344Z,53.6
2023-05-19T12:11:19.410Z,53.7
2023-05-19T12:12:17.417Z,53.7
2023-05-19T12:13:16.960Z,54.0
2023-05-19T12:14:17.565Z,54.8
2023-05-19T12:15:17.164Z,55.2
2023-05-19T12:16:16.808Z,55.7
2023-05-19T12:17:17.413Z,55.1
2023-05-19T12:18:17.013Z,55.1
2023-05-19T12:19:16.637Z,56.2
2023-05-19T12:20:17.257Z,56.0
2023-05-19T12:21:16.829Z,55.0
2023-05-19T12:22:17.440Z,55.1
2023-05-19T12:23:16.982Z,55.2
2023-05-19T12:24:16.518Z,55.3
2023-05-19T12:25:17.123Z,55.3
2023-05-19T12:26:16.716Z,55.5
2023-05-19T12:27:17.342Z,56.2
2023-05-19T12:28:16.954Z,55.9
2023-05-19T12:29:17.560Z,56.5
2023-05-19T12:30:17.212Z,55.1
2023-05-19T12:31:16.870Z,55.6
2023-05-19T12:32:17.403Z,55.8
2023-05-19T12:33:17.026Z,56.2
2023-05-19T12:34:16.610Z,56.0
2023-05-19T12:35:17.154Z,55.2
2023-05-19T12:36:16.699Z,54.9
2023-05-19T12:37:17.230Z,55.0
2023-05-19T12:38:16.816Z,54.6
2023-05-19T12:39:19.499Z,55.2
2023-05-19T12:40:16.697Z,55.3
2023-05-19T12:41:17.249Z,55.7
2023-05-19T12:42:16.648Z,55.2
2023-05-19T12:43:17.233Z,55.3
2023-05-19T12:44:16.835Z,55.0
2023-05-19T12:45:17.374Z,54.5
2023-05-19T12:46:17.159Z,55.5
2023-05-19T12:47:16.748Z,54.6
2023-05-19T12:48:17.545Z,54.6
2023-05-19T12:49:17.187Z,54.9
2023-05-19T12:50:16.780Z,54.7
2023-05-19T12:51:17.917Z,54.0
2023-05-19T12:52:16.691Z,54.2
2023-05-19T12:53:17.277Z,54.6
2023-05-19T12:54:17.449Z,54.8
2023-05-19T12:55:17.291Z,54.9
2023-05-19T12:56:16.939Z,55.4
2023-05-19T12:57:17.968Z,55.5
2023-05-19T12:58:17.050Z,55.1
2023-05-19T12:59:30.911Z,55.2
2023-05-19T13:00:16.665Z,55.9
2023-05-19T13:01:17.889Z,56.2
2023-05-19T13:02:16.871Z,56.3
2023-05-19T13:03:17.844Z,55.3
2023-05-19T13:04:17.647Z,55.5
2023-05-19T13:05:17.239Z,55.2
2023-05-19T13:06:16.811Z,55.4
2023-05-19T13:07:17.365Z,55.2
2023-05-19T13:08:16.924Z,55.1
2023-05-19T13:09:17.514Z,55.5
2023-05-19T13:10:17.085Z,55.0
2023-05-19T13:11:16.715Z,55.0
2023-05-19T13:12:17.239Z,55.5
2023-05-19T13:13:16.843Z,55.4
2023-05-19T13:14:17.433Z,55.0
2023-05-19T13:15:17.034Z,55.0
2023-05-19T13:16:16.776Z,55.8
2023-05-19T13:17:17.390Z,54.5
2023-05-19T13:18:17.025Z,54.6
2023-05-19T13:19:26.128Z,54.6